Time;durP1;ratioP1;P1;durP2;ratioP2;P2;SDS_P1;SDS_P2;PMS_P1;PMS_P2;Temp;Humidity;BMP_temperature;BMP_pressure;BME280_temperature;BME280_humidity;BME280_pressure;Samples;Min_cycle;Max_cycle;Signal;HPM_P1;HPM_P2
2023/04/18 00:00:14;;;;;;;8.60;6.17;;;12.90;82.40;12.80;96661.00;;;;5016673;28;20689;-81
2023/04/18 00:02:42;;;;;;;5.83;5.33;;;12.90;82.40;12.80;96666.00;;;;5020731;28;20301;-80
2023/04/18 00:05:11;;;;;;;6.93;6.33;;;12.90;82.50;12.80;96667.00;;;;5017752;28;20594;-80
2023/04/18 00:07:39;;;;;;;7.00;6.40;;;12.90;82.60;12.80;96672.00;;;;5015140;28;20206;-80
2023/04/18 00:10:08;;;;;;;7.03;6.33;;;12.90;82.40;12.80;96666.00;;;;5021891;28;20257;-80
2023/04/18 00:12:35;;;;;;;7.30;6.57;;;12.90;82.30;12.80;96663.00;;;;5023424;28;20304;-80
2023/04/18 00:15:06;;;;;;;7.20;6.47;;;12.90;82.10;12.80;96668.00;;;;5020852;28;20209;-80
2023/04/18 00:17:37;;;;;;;7.37;6.67;;;12.80;81.90;12.80;96660.00;;;;5003631;28;20198;-80
2023/04/18 00:20:06;;;;;;;7.77;6.83;;;12.80;81.80;12.80;96659.00;;;;5023878;28;20229;-80
2023/04/18 00:22:33;;;;;;;7.63;6.63;;;12.80;81.90;12.70;96664.00;;;;5015096;28;20781;-79
2023/04/18 00:25:01;;;;;;;8.13;7.37;;;12.80;81.90;12.70;96667.00;;;;5008337;28;20710;-79
2023/04/18 00:27:28;;;;;;;8.63;7.43;;;12.80;82.00;12.70;96661.00;;;;5018550;28;20220;-80
2023/04/18 00:29:55;;;;;;;8.30;7.30;;;12.70;81.70;12.70;96670.00;;;;5020695;28;20197;-79
2023/04/18 00:32:22;;;;;;;7.90;7.13;;;12.70;81.70;12.70;96664.00;;;;5013161;28;20249;-79
2023/04/18 00:34:52;;;;;;;8.07;7.27;;;12.70;81.90;12.70;96666.00;;;;5017144;28;20202;-79
2023/04/18 00:37:19;;;;;;;8.70;7.80;;;12.70;81.70;12.60;96663.00;;;;5012495;28;20642;-79
2023/04/18 00:39:46;;;;;;;9.63;8.00;;;12.70;81.60;12.60;96663.00;;;;5014397;28;20198;-79
2023/04/18 00:42:13;;;;;;;8.93;8.03;;;12.70;81.60;12.60;96658.00;;;;5009144;28;20198;-79
2023/04/18 00:44:40;;;;;;;7.97;7.27;;;12.60;81.50;12.50;96660.00;;;;5025559;28;20570;-79
2023/04/18 00:47:07;;;;;;;10.20;8.23;;;12.60;81.40;12.50;96658.00;;;;5015958;28;20293;-79
2023/04/18 00:49:35;;;;;;;9.97;8.70;;;12.60;81.50;12.50;96653.00;;;;5014913;28;20198;-79
2023/04/18 00:52:04;;;;;;;8.87;7.83;;;12.60;81.70;12.50;96659.00;;;;4995726;28;20770;-79
2023/04/18 00:54:31;;;;;;;8.67;7.87;;;12.60;81.70;12.40;96658.00;;;;5019904;28;20285;-79
2023/04/18 00:56:59;;;;;;;9.40;8.37;;;12.50;81.80;12.40;96656.00;;;;4981352;28;20218;-79
2023/04/18 00:59:30;;;;;;;9.13;8.27;;;12.50;81.80;12.40;96658.00;;;;5018067;28;20229;-79
2023/04/18 01:01:57;;;;;;;9.93;8.47;;;12.50;81.70;12.40;96657.00;;;;5015079;28;20665;-79
2023/04/18 01:04:24;;;;;;;10.03;9.03;;;12.50;81.70;12.40;96662.00;;;;5013944;28;20217;-79
2023/04/18 01:06:51;;;;;;;10.73;9.13;;;12.50;81.80;12.40;96667.00;;;;5013028;28;20224;-79
2023/04/18 01:09:21;;;;;;;9.70;8.70;;;12.40;81.80;12.40;96670.00;;;;5001944;28;20230;-78
2023/04/18 01:11:48;;;;;;;9.37;8.43;;;12.40;81.80;12.40;96671.00;;;;5014397;28;20813;-80
2023/04/18 01:14:15;;;;;;;9.67;8.87;;;12.40;81.80;12.40;96665.00;;;;5014230;28;20232;-79
2023/04/18 01:16:43;;;;;;;9.10;8.27;;;12.40;81.80;12.40;96666.00;;;;5013776;28;20230;-79
2023/04/18 01:19:10;;;;;;;9.50;8.50;;;12.40;81.70;12.40;96670.00;;;;5012631;28;20671;-79
2023/04/18 01:21:40;;;;;;;9.77;8.80;;;12.40;81.70;12.40;96666.00;;;;5014923;28;20190;-79
2023/04/18 01:24:12;;;;;;;9.90;8.67;;;12.40;81.70;12.40;96663.00;;;;5012561;28;20642;-79
2023/04/18 01:26:42;;;;;;;9.50;8.47;;;12.40;81.50;12.40;96660.00;;;;5018290;28;20209;-79
2023/04/18 01:29:10;;;;;;;10.13;9.10;;;12.40;81.30;12.30;96654.00;;;;5013224;28;20578;-79
2023/04/18 01:31:39;;;;;;;9.17;8.23;;;12.40;81.10;12.30;96656.00;;;;4995806;28;20209;-79
2023/04/18 01:34:07;;;;;;;10.07;9.07;;;12.40;81.10;12.30;96654.00;;;;5013657;28;20221;-79
2023/04/18 01:36:38;;;;;;;9.70;8.70;;;12.30;80.80;12.20;96650.00;;;;4998803;28;20222;-80
2023/04/18 01:39:05;;;;;;;9.13;8.27;;;12.30;80.70;12.20;96655.00;;;;5022592;28;20207;-79
2023/04/18 01:41:34;;;;;;;9.33;8.43;;;12.20;80.70;12.10;96653.00;;;;5017078;28;20221;-80
2023/04/18 01:44:01;;;;;;;10.97;9.10;;;12.20;81.00;12.10;96648.00;;;;5014937;28;20218;-79
2023/04/18 01:46:29;;;;;;;9.73;8.73;;;12.20;80.80;12.10;96651.00;;;;4996935;28;20202;-79
2023/04/18 01:48:57;;;;;;;10.20;9.13;;;12.20;80.80;12.00;96647.00;;;;5015987;28;20202;-79
2023/04/18 01:51:25;;;;;;;10.80;9.20;;;12.10;80.80;12.00;96651.00;;;;5017154;28;20205;-79
2023/04/18 01:53:52;;;;;;;9.87;8.87;;;12.10;81.00;12.00;96648.00;;;;4998462;28;20222;-79
2023/04/18 01:56:19;;;;;;;10.53;9.20;;;12.10;81.10;12.00;96640.00;;;;5017242;28;20313;-79
2023/04/18 01:58:48;;;;;;;9.50;8.50;;;12.00;81.00;11.90;96631.00;;;;5018088;28;20249;-79
2023/04/18 02:01:15;;;;;;;10.33;9.27;;;12.00;81.10;11.90;96633.00;;;;5015066;28;20285;-79
2023/04/18 02:03:43;;;;;;;10.77;9.37;;;12.00;81.20;11.90;96637.00;;;;4998050;28;20727;-79
2023/04/18 02:06:10;;;;;;;10.20;9.10;;;12.00;81.30;11.90;96628.00;;;;5019468;28;20206;-79
2023/04/18 02:08:37;;;;;;;10.33;9.23;;;12.00;81.40;11.90;96632.00;;;;5000359;28;20197;-78
2023/04/18 02:11:05;;;;;;;10.63;9.43;;;12.00;81.40;11.90;96632.00;;;;5020620;28;20200;-79
2023/04/18 02:13:32;;;;;;;10.40;9.30;;;12.00;81.40;11.90;96631.00;;;;4994853;28;20236;-79
2023/04/18 02:16:01;;;;;;;9.93;8.93;;;12.00;81.60;11.90;96632.00;;;;5012422;28;20316;-79
2023/04/18 02:18:29;;;;;;;10.10;8.87;;;11.90;81.50;11.80;96637.00;;;;5017361;28;20583;-79
2023/04/18 02:20:56;;;;;;;10.27;9.17;;;11.90;81.50;11.80;96635.00;;;;5001587;28;20201;-79
2023/04/18 02:23:23;;;;;;;10.07;8.77;;;11.90;81.90;11.80;96640.00;;;;5017828;28;20224;-79
2023/04/18 02:25:51;;;;;;;10.20;8.87;;;11.90;81.60;11.80;96637.00;;;;5016351;28;20229;-80
2023/04/18 02:28:18;;;;;;;12.17;9.40;;;11.90;81.50;11.80;96632.00;;;;5010785;28;20209;-80
2023/04/18 02:30:45;;;;;;;10.60;8.90;;;11.90;81.50;11.80;96641.00;;;;5019647;28;20756;-79
2023/04/18 02:33:17;;;;;;;10.30;9.20;;;11.90;81.50;11.80;96642.00;;;;4986688;28;20300;-79
2023/04/18 02:35:44;;;;;;;9.20;8.20;;;11.90;81.60;11.80;96649.00;;;;5013724;28;20229;-79
2023/04/18 02:38:12;;;;;;;10.63;9.53;;;11.90;81.50;11.80;96648.00;;;;5012659;28;20912;-79
2023/04/18 02:40:39;;;;;;;9.93;8.93;;;11.90;81.30;11.80;96647.00;;;;5016406;28;20201;-79
2023/04/18 02:43:07;;;;;;;10.33;9.23;;;11.90;81.30;11.80;96652.00;;;;5019965;28;20250;-79
2023/04/18 02:45:34;;;;;;;10.60;9.50;;;11.90;81.30;11.80;96652.00;;;;5013141;28;20314;-79
2023/04/18 02:48:02;;;;;;;11.13;9.97;;;11.80;81.10;11.80;96654.00;;;;4995715;28;20198;-79
2023/04/18 02:50:30;;;;;;;10.63;9.20;;;11.80;81.00;11.70;96654.00;;;;5012963;28;20244;-78
2023/04/18 02:52:58;;;;;;;12.47;9.40;;;11.80;80.90;11.70;96658.00;;;;5019991;28;20217;-79
2023/04/18 02:55:25;;;;;;;10.40;9.37;;;11.80;80.90;11.70;96660.00;;;;5010462;28;20202;-79
2023/04/18 02:57:52;;;;;;;12.70;9.40;;;11.80;81.00;11.70;96660.00;;;;5012113;28;20214;-79
2023/04/18 03:00:20;;;;;;;10.17;9.03;;;11.80;80.90;11.70;96658.00;;;;5012046;28;20216;-79
2023/04/18 03:02:47;;;;;;;10.00;9.00;;;11.80;81.00;11.70;96651.00;;;;5013521;28;20776;-78
2023/04/18 03:05:14;;;;;;;10.03;8.87;;;11.70;80.90;11.70;96657.00;;;;5011659;28;20202;-79
2023/04/18 03:07:43;;;;;;;11.67;10.23;;;11.70;81.10;11.70;96646.00;;;;5013033;28;20675;-78
2023/04/18 03:10:11;;;;;;;10.80;9.63;;;11.70;81.00;11.70;96655.00;;;;5010986;28;20194;-78
2023/04/18 03:12:38;;;;;;;10.40;9.33;;;11.70;80.70;11.60;96646.00;;;;5012360;28;20218;-79
2023/04/18 03:15:07;;;;;;;12.47;8.70;;;11.70;80.50;11.60;96649.00;;;;5010690;28;20198;-80
2023/04/18 03:17:35;;;;;;;11.33;10.03;;;11.70;80.60;11.60;96641.00;;;;5010895;28;20221;-80
2023/04/18 03:20:06;;;;;;;10.67;9.23;;;11.60;80.70;11.50;96647.00;;;;5010534;28;20288;-79
2023/04/18 03:22:34;;;;;;;9.97;8.93;;;11.70;80.60;11.50;96649.00;;;;5018432;28;20222;-79
2023/04/18 03:25:02;;;;;;;10.17;9.07;;;11.60;80.60;11.50;96647.00;;;;4988696;28;20206;-79
2023/04/18 03:27:29;;;;;;;10.37;9.27;;;11.50;80.60;11.50;96646.00;;;;5012164;28;20209;-79
2023/04/18 03:29:58;;;;;;;10.67;9.13;;;11.60;80.50;11.40;96653.00;;;;5021339;28;20588;-80
2023/04/18 03:32:25;;;;;;;11.73;9.43;;;11.50;80.50;11.40;96649.00;;;;5032800;28;20280;-79
2023/04/18 03:34:53;;;;;;;11.83;10.00;;;11.50;80.50;11.40;96648.00;;;;5033085;28;20205;-79
2023/04/18 03:37:20;;;;;;;10.97;9.10;;;11.50;80.60;11.40;96641.00;;;;5020841;28;20222;-79
2023/04/18 03:39:48;;;;;;;11.70;9.27;;;11.50;80.60;11.40;96643.00;;;;4997421;28;20202;-81
2023/04/18 03:42:16;;;;;;;11.83;10.37;;;11.50;81.40;11.40;96649.00;;;;5015759;28;20202;-80
2023/04/18 03:44:43;;;;;;;11.13;9.87;;;11.40;80.70;11.30;96645.00;;;;5030132;28;20203;-79
2023/04/18 03:47:11;;;;;;;11.50;9.73;;;11.40;80.90;11.30;96646.00;;;;5029852;28;20202;-79
2023/04/18 03:49:39;;;;;;;12.00;9.53;;;11.40;80.80;11.30;96643.00;;;;5018974;28;20216;-79
2023/04/18 03:52:06;;;;;;;11.80;9.80;;;11.40;81.10;11.30;96648.00;;;;5014032;28;20221;-79
2023/04/18 03:54:34;;;;;;;11.60;10.10;;;11.40;81.00;11.30;96647.00;;;;5015754;28;20207;-80
2023/04/18 03:57:01;;;;;;;16.03;10.37;;;11.40;81.10;11.30;96649.00;;;;5018945;28;20252;-80
2023/04/18 03:59:30;;;;;;;11.73;10.47;;;11.40;81.20;11.30;96645.00;;;;5028052;28;20244;-79
2023/04/18 04:01:58;;;;;;;12.23;9.80;;;11.40;81.10;11.30;96651.00;;;;5022162;28;20199;-79
2023/04/18 04:04:25;;;;;;;12.77;10.33;;;11.40;81.00;11.20;96647.00;;;;4998237;28;20217;-79
2023/04/18 04:06:58;;;;;;;11.77;10.20;;;11.30;80.70;11.20;96651.00;;;;5024236;28;20198;-79
2023/04/18 04:09:25;;;;;;;12.47;9.67;;;11.30;80.50;11.20;96649.00;;;;5020918;28;20194;-80
2023/04/18 04:11:53;;;;;;;13.57;10.50;;;11.30;80.50;11.20;96649.00;;;;5010642;28;20209;-80
2023/04/18 04:14:20;;;;;;;10.30;9.00;;;11.30;80.70;11.20;96654.00;;;;5013769;28;20225;-80
2023/04/18 04:16:49;;;;;;;11.13;9.90;;;11.20;81.40;11.10;96658.00;;;;5024133;28;20221;-80
2023/04/18 04:19:16;;;;;;;11.93;10.23;;;11.20;80.60;11.10;96655.00;;;;5002508;28;20733;-81
2023/04/18 04:21:43;;;;;;;12.23;10.27;;;11.20;80.80;11.10;96658.00;;;;4993629;28;20198;-80
2023/04/18 04:24:12;;;;;;;11.63;9.63;;;11.20;80.80;11.10;96662.00;;;;4993823;28;20245;-80
2023/04/18 04:26:41;;;;;;;14.10;10.60;;;11.20;80.90;11.10;96662.00;;;;5018194;28;20218;-82
2023/04/18 04:29:09;;;;;;;11.43;10.10;;;11.20;80.80;11.10;96656.00;;;;5032152;28;20217;-81
2023/04/18 04:31:36;;;;;;;11.57;10.37;;;11.20;80.80;11.20;96657.00;;;;5022962;28;20209;-81
2023/04/18 04:34:05;;;;;;;14.27;10.43;;;11.20;80.80;11.20;96663.00;;;;5035964;28;20215;-80
2023/04/18 04:36:33;;;;;;;12.30;10.07;;;11.20;80.70;11.20;96670.00;;;;5031592;28;20269;-81
2023/04/18 04:39:02;;;;;;;11.63;10.07;;;11.20;80.80;11.20;96666.00;;;;5015749;28;20258;-81
2023/04/18 04:41:30;;;;;;;12.63;10.23;;;11.20;80.80;11.20;96663.00;;;;5027033;28;20233;-80
2023/04/18 04:43:58;;;;;;;14.00;9.90;;;11.20;80.80;11.20;96662.00;;;;5026452;28;20276;-82
2023/04/18 04:46:28;;;;;;;15.40;10.97;;;11.10;80.80;11.20;96663.00;;;;5012986;28;20818;-82
2023/04/18 04:48:55;;;;;;;15.80;10.70;;;11.10;81.00;11.20;96654.00;;;;5034422;28;20189;-81
2023/04/18 04:51:24;;;;;;;14.30;11.17;;;11.20;81.00;11.20;96664.00;;;;5026413;28;20233;-82
2023/04/18 04:53:51;;;;;;;12.93;10.13;;;11.20;81.00;11.20;96668.00;;;;5006874;28;20758;-81
2023/04/18 04:56:19;;;;;;;13.43;10.63;;;11.10;81.70;11.20;96660.00;;;;5013627;28;20675;-80
2023/04/18 04:58:46;;;;;;;15.40;9.83;;;11.20;81.10;11.20;96666.00;;;;5032771;28;20249;-80
2023/04/18 05:01:13;;;;;;;12.90;10.57;;;11.10;80.90;11.20;96668.00;;;;5014440;28;20222;-81
2023/04/18 05:03:41;;;;;;;13.63;10.67;;;11.10;81.00;11.10;96677.00;;;;5006676;28;20673;-80
2023/04/18 05:06:08;;;;;;;12.40;10.37;;;11.10;81.00;11.10;96668.00;;;;5025322;28;20198;-80
2023/04/18 05:08:36;;;;;;;12.17;10.43;;;11.10;80.90;11.10;96668.00;;;;5024818;28;20266;-81
2023/04/18 05:11:04;;;;;;;14.13;10.70;;;11.10;81.10;11.10;96668.00;;;;5008464;28;20646;-80
2023/04/18 05:13:31;;;;;;;14.43;10.53;;;11.10;81.00;11.10;96674.00;;;;5017413;28;20743;-80
2023/04/18 05:15:59;;;;;;;13.33;9.83;;;11.10;81.80;11.10;96672.00;;;;5029124;28;20222;-80
2023/04/18 05:18:26;;;;;;;13.50;11.17;;;11.10;81.20;11.10;96676.00;;;;5034812;28;20217;-80
2023/04/18 05:20:54;;;;;;;13.63;10.13;;;11.10;81.30;11.20;96675.00;;;;5023173;28;20265;-80
2023/04/18 05:23:21;;;;;;;12.40;10.50;;;11.10;81.20;11.20;96671.00;;;;5033844;28;20650;-81
2023/04/18 05:25:50;;;;;;;15.23;11.13;;;11.10;81.30;11.20;96672.00;;;;5026561;28;20281;-82
2023/04/18 05:28:17;;;;;;;11.57;10.37;;;11.10;81.20;11.20;96684.00;;;;5021746;28;20245;-82
2023/04/18 05:30:45;;;;;;;12.80;9.53;;;11.10;81.30;11.20;96692.00;;;;5028724;28;20285;-82
2023/04/18 05:33:12;;;;;;;13.73;10.37;;;11.10;81.30;11.20;96691.00;;;;5006779;28;20255;-82
2023/04/18 05:35:40;;;;;;;12.83;10.50;;;11.10;81.30;11.20;96683.00;;;;5023358;28;20265;-82
2023/04/18 05:38:07;;;;;;;11.50;9.87;;;11.10;81.40;11.20;96686.00;;;;5000820;28;20242;-82
2023/04/18 05:40:34;;;;;;;14.33;11.17;;;11.10;81.40;11.20;96684.00;;;;5022219;28;20266;-82
2023/04/18 05:43:03;;;;;;;14.00;10.80;;;11.10;81.50;11.20;96681.00;;;;5019597;28;20296;-82
2023/04/18 05:45:30;;;;;;;11.90;10.10;;;11.20;81.80;11.20;96684.00;;;;5026682;28;20196;-82
2023/04/18 05:47:57;;;;;;;11.93;9.70;;;11.10;81.80;11.30;96682.00;;;;5023569;28;20288;-82
2023/04/18 05:50:24;;;;;;;13.37;10.27;;;11.20;82.00;11.30;96691.00;;;;5019003;28;20202;-82
2023/04/18 05:52:52;;;;;;;13.30;10.10;;;11.20;82.10;11.40;96692.00;;;;5021026;28;20412;-82
2023/04/18 05:55:19;;;;;;;12.47;10.47;;;11.20;82.10;11.40;96695.00;;;;5020228;28;20261;-82
2023/04/18 05:57:46;;;;;;;15.67;10.83;;;11.30;82.40;11.50;96696.00;;;;5024243;28;20232;-82
2023/04/18 06:00:17;;;;;;;12.57;9.83;;;11.30;82.60;11.50;96700.00;;;;5003398;28;20195;-82
2023/04/18 06:02:44;;;;;;;11.80;9.60;;;11.40;82.60;11.50;96697.00;;;;5034959;28;20721;-82
2023/04/18 06:05:12;;;;;;;13.70;10.27;;;11.40;82.60;11.50;96708.00;;;;5032730;28;20280;-82
2023/04/18 06:07:40;;;;;;;14.67;10.67;;;11.40;82.60;11.60;96707.00;;;;5024343;28;20266;-82
2023/04/18 06:10:12;;;;;;;14.53;9.97;;;11.50;82.60;11.60;96712.00;;;;5007356;28;20206;-82
2023/04/18 06:12:39;;;;;;;14.43;10.90;;;11.50;82.30;11.60;96709.00;;;;5025193;28;20233;-82
2023/04/18 06:15:08;;;;;;;13.87;10.23;;;11.50;82.20;11.60;96719.00;;;;5036165;28;20194;-82
2023/04/18 06:17:37;;;;;;;11.67;9.77;;;11.50;82.10;11.70;96703.00;;;;5012470;28;20227;-82
2023/04/18 06:20:05;;;;;;;12.93;10.37;;;11.50;81.90;11.70;96713.00;;;;5030717;28;20262;-82
2023/04/18 06:22:33;;;;;;;11.53;9.97;;;11.60;82.00;11.70;96707.00;;;;5024979;28;20232;-82
2023/04/18 06:25:00;;;;;;;14.40;9.73;;;11.60;81.90;11.70;96715.00;;;;5016469;28;20210;-82
2023/04/18 06:27:28;;;;;;;15.07;11.13;;;11.60;81.80;11.70;96711.00;;;;5025547;28;20256;-82
2023/04/18 06:29:55;;;;;;;12.03;10.03;;;11.60;81.80;11.70;96719.00;;;;5035314;28;20236;-82
2023/04/18 06:32:22;;;;;;;12.13;10.23;;;11.60;82.00;11.80;96719.00;;;;5031063;28;20233;-82
2023/04/18 06:34:51;;;;;;;13.77;10.67;;;11.60;82.30;11.90;96717.00;;;;5035575;28;20288;-82
2023/04/18 06:37:19;;;;;;;15.13;10.63;;;11.70;82.50;11.90;96724.00;;;;5008125;28;20218;-82
2023/04/18 06:39:47;;;;;;;14.10;10.73;;;11.80;82.70;12.00;96729.00;;;;5001959;28;20685;-83
2023/04/18 06:42:14;;;;;;;14.13;10.53;;;11.80;82.90;12.20;96720.00;;;;5001554;28;20194;-82
2023/04/18 06:44:42;;;;;;;13.17;10.37;;;11.90;83.20;12.30;96724.00;;;;5017739;28;20220;-82
2023/04/18 06:47:10;;;;;;;13.70;10.30;;;12.00;83.50;12.40;96727.00;;;;5010715;28;20197;-82
2023/04/18 06:49:37;;;;;;;15.20;10.60;;;12.10;83.60;12.50;96731.00;;;;5004936;28;20190;-82
2023/04/18 06:52:06;;;;;;;14.53;10.80;;;12.20;83.80;12.60;96724.00;;;;4984041;28;20718;-82
2023/04/18 06:54:33;;;;;;;12.03;9.57;;;12.20;83.80;12.80;96727.00;;;;5022999;28;20917;-83
2023/04/18 06:57:02;;;;;;;11.13;9.73;;;12.40;83.90;12.90;96713.00;;;;5018292;28;20583;-82
2023/04/18 06:59:29;;;;;;;11.27;9.27;;;12.50;83.80;13.00;96720.00;;;;5031984;28;21073;-82
2023/04/18 07:01:56;;;;;;;11.63;9.77;;;12.50;83.50;13.00;96718.00;;;;5029393;28;20201;-82
2023/04/18 07:04:24;;;;;;;13.57;9.80;;;12.70;83.60;13.10;96722.00;;;;5019767;28;20267;-83
2023/04/18 07:06:52;;;;;;;12.03;8.93;;;12.70;83.70;13.20;96728.00;;;;5027116;28;20202;-82
2023/04/18 07:09:21;;;;;;;11.80;9.90;;;12.80;83.50;13.20;96728.00;;;;5020573;28;20202;-83
2023/04/18 07:11:49;;;;;;;11.90;8.83;;;12.90;83.10;13.30;96747.00;;;;5020028;28;20198;-82
2023/04/18 07:14:18;;;;;;;10.20;8.47;;;13.00;82.80;13.30;96740.00;;;;5010115;28;20653;-82
2023/04/18 07:16:46;;;;;;;12.83;9.37;;;13.00;82.30;13.30;96746.00;;;;5036300;28;20197;-82
2023/04/18 07:19:13;;;;;;;11.03;9.03;;;13.10;82.00;13.30;96746.00;;;;5021035;28;20228;-83
2023/04/18 07:21:42;;;;;;;9.47;8.47;;;13.10;81.70;13.30;96745.00;;;;5021946;28;20190;-82
2023/04/18 07:24:09;;;;;;;9.77;8.63;;;13.10;81.40;13.30;96746.00;;;;5003068;28;20733;-82
2023/04/18 07:26:39;;;;;;;10.97;9.17;;;13.20;81.60;13.40;96728.00;;;;5003206;28;20294;-82
2023/04/18 07:29:06;;;;;;;10.53;8.77;;;13.20;81.90;13.50;96739.00;;;;5028791;28;20197;-82
2023/04/18 07:31:34;;;;;;;18.27;8.70;;;13.30;82.10;13.60;96742.00;;;;5020805;28;20281;-82
2023/04/18 07:34:01;;;;;;;10.70;8.73;;;13.30;82.10;13.70;96752.00;;;;5001581;28;20605;-82
2023/04/18 07:36:28;;;;;;;11.80;9.70;;;13.40;82.40;13.80;96743.00;;;;5021796;28;20884;-82
2023/04/18 07:38:57;;;;;;;12.50;9.80;;;13.40;82.40;14.00;96745.00;;;;5015796;28;20226;-82
2023/04/18 07:41:24;;;;;;;15.03;9.50;;;13.50;82.50;14.10;96748.00;;;;5023066;28;20226;-82
2023/04/18 07:43:54;;;;;;;14.23;10.50;;;13.60;82.60;14.20;96756.00;;;;5029526;28;20224;-82
2023/04/18 07:46:21;;;;;;;11.10;9.00;;;13.70;82.60;14.30;96753.00;;;;5022128;28;20229;-82
2023/04/18 07:48:48;;;;;;;10.73;8.93;;;13.80;82.90;14.40;96761.00;;;;5021162;28;20258;-83
2023/04/18 07:51:16;;;;;;;16.27;9.73;;;13.90;82.10;14.50;96753.00;;;;5020686;28;20281;-82
2023/04/18 07:53:43;;;;;;;14.80;9.37;;;13.90;82.10;14.60;96753.00;;;;5034318;28;20221;-83
2023/04/18 07:56:13;;;;;;;12.80;9.17;;;14.00;82.20;14.70;96764.00;;;;5000418;28;20213;-83
2023/04/18 07:58:40;;;;;;;11.47;9.10;;;14.20;82.30;14.80;96760.00;;;;5017969;28;20218;-83
2023/04/18 08:01:12;;;;;;;10.90;9.27;;;14.30;82.10;14.90;96756.00;;;;5030210;28;20325;-83
2023/04/18 08:03:40;;;;;;;11.30;9.37;;;14.30;81.60;15.00;96766.00;;;;5025493;28;20222;-83
2023/04/18 08:06:07;;;;;;;10.80;9.20;;;14.40;81.30;15.00;96760.00;;;;5003062;28;20206;-83
2023/04/18 08:08:35;;;;;;;10.80;8.37;;;14.50;81.30;15.10;96764.00;;;;5020583;28;20327;-83
2023/04/18 08:11:04;;;;;;;11.63;8.50;;;14.60;81.30;15.20;96763.00;;;;5022728;28;20221;-83
2023/04/18 08:13:31;;;;;;;9.50;8.17;;;14.70;81.20;15.20;96767.00;;;;5034176;28;20286;-83
2023/04/18 08:16:01;;;;;;;10.67;8.53;;;14.70;81.20;15.30;96767.00;;;;5022447;28;20197;-83
2023/04/18 08:18:30;;;;;;;10.40;8.90;;;14.80;81.10;15.40;96764.00;;;;5022807;28;20245;-82
2023/04/18 08:20:57;;;;;;;9.67;8.30;;;14.80;81.00;15.40;96764.00;;;;5023262;28;20280;-82
2023/04/18 08:23:24;;;;;;;13.10;9.37;;;14.90;81.60;15.50;96768.00;;;;5029638;28;20255;-83
2023/04/18 08:25:52;;;;;;;10.47;7.90;;;15.00;80.50;15.50;96767.00;;;;5021369;28;20585;-83
2023/04/18 08:28:19;;;;;;;17.83;8.00;;;15.00;80.20;15.50;96771.00;;;;5025046;28;20685;-84
2023/04/18 08:30:48;;;;;;;9.67;8.00;;;15.10;80.20;15.50;96768.00;;;;5030851;28;20286;-83
2023/04/18 08:33:15;;;;;;;9.23;8.00;;;15.10;80.00;15.50;96774.00;;;;5019700;28;20221;-83
2023/04/18 08:35:44;;;;;;;14.53;8.70;;;15.10;79.70;15.50;96769.00;;;;5002035;28;20675;-83
2023/04/18 08:38:12;;;;;;;9.80;7.50;;;15.20;80.00;15.60;96776.00;;;;5016705;28;20225;-83
2023/04/18 08:40:39;;;;;;;9.73;8.00;;;15.20;80.00;15.70;96775.00;;;;5026514;28;20202;-84
2023/04/18 08:43:08;;;;;;;12.13;8.20;;;15.20;80.00;15.70;96779.00;;;;5017627;28;20661;-83
2023/04/18 08:45:37;;;;;;;13.80;8.30;;;15.30;80.00;15.80;96776.00;;;;5018339;28;20202;-83
2023/04/18 08:48:05;;;;;;;21.13;8.63;;;15.30;80.00;15.80;96785.00;;;;5019141;28;20256;-83
2023/04/18 08:50:32;;;;;;;12.10;8.53;;;15.40;80.20;15.90;96776.00;;;;5024607;28;20255;-83
2023/04/18 08:53:01;;;;;;;11.63;8.07;;;15.40;80.40;16.00;96784.00;;;;5002739;28;20301;-82
2023/04/18 08:55:28;;;;;;;13.30;8.70;;;15.50;80.40;16.00;96783.00;;;;5032538;28;20205;-83
2023/04/18 08:57:56;;;;;;;9.63;7.20;;;15.50;80.40;16.10;96795.00;;;;5021241;28;20221;-82
2023/04/18 09:00:23;;;;;;;8.97;7.23;;;15.60;79.80;16.10;96800.00;;;;5025368;28;20589;-83
2023/04/18 09:02:55;;;;;;;10.73;7.87;;;15.60;79.50;16.10;96793.00;;;;5035262;28;20221;-83
2023/04/18 09:05:24;;;;;;;12.90;8.07;;;15.70;79.00;16.20;96796.00;;;;5022446;28;20190;-83
2023/04/18 09:07:54;;;;;;;9.63;7.13;;;15.70;79.00;16.30;96798.00;;;;5009103;28;20201;-82
2023/04/18 09:10:42;;;;;;;7.17;6.47;;;15.70;79.10;16.30;96798.00;;;;5011848;28;20301;-83
2023/04/18 09:13:10;;;;;;;13.37;6.37;;;15.80;77.40;16.40;96799.00;;;;5017423;28;20222;-83
2023/04/18 09:15:37;;;;;;;7.70;6.67;;;15.90;79.10;16.50;96799.00;;;;5026537;28;20711;-83
2023/04/18 09:18:10;;;;;;;7.80;6.43;;;15.90;79.00;16.50;96805.00;;;;5018648;28;20304;-83
2023/04/18 09:20:40;;;;;;;8.53;7.10;;;16.00;78.50;16.60;96804.00;;;;5024512;28;20198;-84
2023/04/18 09:23:10;;;;;;;9.90;7.37;;;16.00;78.70;16.60;96812.00;;;;5018224;28;20225;-85
2023/04/18 09:25:45;;;;;;;8.93;6.60;;;16.10;78.70;16.70;96816.00;;;;5015795;28;20665;-83
2023/04/18 09:28:25;;;;;;;7.60;6.73;;;16.10;78.50;16.80;96813.00;;;;5017569;28;20221;-83
2023/04/18 09:30:54;;;;;;;6.97;6.27;;;16.20;77.60;16.80;96811.00;;;;5016215;28;20694;-83
2023/04/18 09:33:28;;;;;;;7.93;7.13;;;16.20;78.20;16.80;96811.00;;;;5017381;28;20245;-84
2023/04/18 09:35:55;;;;;;;8.00;6.67;;;16.30;77.90;16.80;96802.00;;;;5019103;28;20266;-83
2023/04/18 09:38:40;;;;;;;6.87;6.23;;;16.30;78.30;16.90;96809.00;;;;5030082;28;20218;-83
2023/04/18 09:41:14;;;;;;;7.63;6.77;;;16.40;77.10;17.00;96802.00;;;;5034285;28;20245;-84
2023/04/18 09:43:42;;;;;;;7.53;6.37;;;16.40;77.40;17.10;96803.00;;;;5032710;28;20630;-84
2023/04/18 09:46:11;;;;;;;6.53;5.63;;;16.50;77.60;17.10;96795.00;;;;5021706;28;20556;-83
2023/04/18 09:48:39;;;;;;;8.43;6.43;;;16.50;77.50;17.20;96799.00;;;;5024288;28;20198;-82
2023/04/18 09:51:09;;;;;;;7.10;6.00;;;16.60;77.30;17.20;96809.00;;;;5013186;28;20199;-85
2023/04/18 09:53:40;;;;;;;10.73;6.37;;;16.60;77.50;17.30;96808.00;;;;5007595;28;20214;-83
2023/04/18 09:56:15;;;;;;;11.63;6.83;;;16.70;77.00;17.30;96808.00;;;;5009969;28;20600;-83
2023/04/18 09:58:46;;;;;;;6.03;5.47;;;16.70;77.30;17.30;96806.00;;;;5018454;28;20257;-81
2023/04/18 10:01:13;;;;;;;6.80;5.70;;;16.80;77.30;17.40;96805.00;;;;4994166;28;20194;-85
2023/04/18 10:03:47;;;;;;;6.47;5.80;;;16.80;77.10;17.40;96810.00;;;;5003797;28;20217;-83
2023/04/18 10:06:17;;;;;;;7.73;5.60;;;16.80;76.30;17.50;96805.00;;;;5027677;28;20221;-84
2023/04/18 10:08:45;;;;;;;6.23;5.47;;;16.90;76.10;17.60;96797.00;;;;5014762;28;20201;-81
2023/04/18 10:11:14;;;;;;;6.23;5.17;;;16.90;76.70;17.60;96800.00;;;;5023329;28;20189;-85
2023/04/18 10:13:47;;;;;;;5.90;5.27;;;17.00;75.70;17.70;96803.00;;;;5054722;28;20197;-85
2023/04/18 10:16:15;;;;;;;7.33;5.50;;;17.00;76.00;17.80;96804.00;;;;5021695;28;20269;-85
2023/04/18 10:18:43;;;;;;;6.30;5.20;;;17.10;76.00;17.80;96808.00;;;;5000301;28;20222;-84
2023/04/18 10:21:10;;;;;;;5.23;4.73;;;17.20;75.90;17.90;96805.00;;;;5014825;28;20199;-85
2023/04/18 10:23:40;;;;;;;5.33;4.83;;;17.20;75.90;18.00;96807.00;;;;4998121;28;20226;-83
2023/04/18 10:26:08;;;;;;;6.20;5.53;;;17.30;75.60;18.00;96799.00;;;;5025902;28;20193;-83
2023/04/18 10:28:53;;;;;;;4.83;4.30;;;17.30;75.60;18.10;96809.00;;;;5014907;28;20224;-84
2023/04/18 10:31:22;;;;;;;5.93;5.03;;;17.40;73.90;18.10;96803.00;;;;4999453;28;20671;-85
2023/04/18 10:33:52;;;;;;;4.50;4.10;;;17.40;75.00;18.20;96803.00;;;;5022763;28;20312;-85
2023/04/18 10:36:21;;;;;;;6.13;5.30;;;17.50;75.40;18.30;96801.00;;;;5001708;28;20579;-85
2023/04/18 10:38:51;;;;;;;5.10;4.40;;;17.50;75.40;18.40;96796.00;;;;5014316;28;20698;-83
2023/04/18 10:41:25;;;;;;;5.77;5.23;;;18.00;75.40;18.40;96800.00;;;;5022703;28;20957;-83
2023/04/18 10:44:22;;;;;;;5.00;4.47;;;17.70;74.20;18.50;96800.00;;;;5024004;28;20652;-83
2023/04/18 10:47:23;;;;;;;4.87;4.47;;;17.70;73.50;18.60;96800.00;;;;5028841;28;20266;-82
2023/04/18 10:50:03;;;;;;;4.30;4.00;;;17.80;73.00;18.70;96804.00;;;;5023523;28;20233;-83
2023/04/18 10:52:31;;;;;;;5.13;4.30;;;17.90;74.30;18.70;96793.00;;;;5000790;28;20245;-82